Terminal Aerodrome Forecast
Issued by NWS Cheyenne, WY

Home | Current Version | Previous Version | Text Only | Print | Product List | Glossary On
Versions: 1 2 3 4 5 6 7 8 9 10 11 12 13 14 15 16 17 18 19 20 21 22 23 24 25 26 27 28 29 30 31 32 33 34 35 36 37
000
FTUS45 KCYS 282335
TAFCYS
TAF
KCYS 282335Z 2900/2924 14011KT P6SM -SN SCT011 BKN020
     FM290200 12008KT 2SM -SN BR BKN007 OVC012
     FM291100 12009KT 3/4SM -SN OVC001
     FM291500 12010KT 1/4SM +SN FG VV001
     FM291900 08011KT 1SM -SN OVC003=

USA.gov is the U.S. government's official web portal to all federal, state and local government web resources and services.